createdAt,value
2023-04-22T00:00:04.973Z,2.40
2023-04-22T00:01:05.010Z,2.40
2023-04-22T00:02:05.111Z,2.39
2023-04-22T00:03:05.168Z,2.41
2023-04-22T00:04:05.332Z,2.42
2023-04-22T00:05:05.148Z,2.40
2023-04-22T00:06:05.491Z,2.37
2023-04-22T00:07:05.176Z,2.41
2023-04-22T00:08:05.193Z,2.38
2023-04-22T00:09:05.205Z,2.41
2023-04-22T00:10:05.227Z,2.37
2023-04-22T00:11:05.237Z,2.35
2023-04-22T00:12:05.310Z,2.40
2023-04-22T00:13:05.318Z,2.37
2023-04-22T00:14:05.336Z,2.35
2023-04-22T00:15:05.382Z,2.39
2023-04-22T00:16:05.439Z,2.35
2023-04-22T00:17:05.416Z,2.38
2023-04-22T00:18:05.471Z,2.38
2023-04-22T00:19:05.451Z,2.36
2023-04-22T00:20:05.499Z,2.36
2023-04-22T00:21:05.528Z,2.37
2023-04-22T00:22:05.529Z,2.36
2023-04-22T00:23:05.560Z,2.36
2023-04-22T00:24:05.608Z,2.38
2023-04-22T00:25:05.602Z,2.38
2023-04-22T00:26:05.633Z,2.35
2023-04-22T00:27:05.643Z,2.34
2023-04-22T00:28:05.648Z,2.39
2023-04-22T00:29:05.680Z,2.34
2023-04-22T00:30:05.693Z,2.31
2023-04-22T00:31:05.805Z,2.34
2023-04-22T00:32:05.751Z,2.30
2023-04-22T00:33:05.853Z,2.35
2023-04-22T00:34:05.804Z,2.34
2023-04-22T00:35:05.866Z,2.33
2023-04-22T00:36:05.864Z,2.32
2023-04-22T00:37:05.889Z,2.34
2023-04-22T00:38:05.933Z,2.33
2023-04-22T00:39:05.962Z,2.38
2023-04-22T00:40:05.986Z,2.33
2023-04-22T00:41:06.012Z,2.31
2023-04-22T00:42:06.034Z,2.30
2023-04-22T00:43:06.090Z,2.32
2023-04-22T00:44:06.103Z,2.32
2023-04-22T00:45:06.136Z,2.33
2023-04-22T00:46:06.171Z,2.31
2023-04-22T00:47:06.312Z,2.31
2023-04-22T00:48:06.253Z,2.31
2023-04-22T00:49:06.249Z,2.30
2023-04-22T00:50:06.286Z,2.30
2023-04-22T00:51:06.372Z,2.32
2023-04-22T00:52:06.324Z,2.30
2023-04-22T00:53:06.382Z,2.30
2023-04-22T00:54:06.447Z,2.30
2023-04-22T00:55:06.429Z,2.31
2023-04-22T00:56:06.462Z,2.32
2023-04-22T00:57:06.479Z,2.29
2023-04-22T00:58:06.495Z,2.28
2023-04-22T00:59:06.517Z,2.27
2023-04-22T01:00:06.561Z,2.32
2023-04-22T01:01:06.626Z,2.30
2023-04-22T01:02:06.651Z,2.29
2023-04-22T01:03:06.902Z,2.29
2023-04-22T01:04:06.959Z,2.31
2023-04-22T01:05:06.692Z,2.29
2023-04-22T01:06:06.713Z,2.29
2023-04-22T01:07:06.887Z,2.25
2023-04-22T01:08:06.909Z,2.29
2023-04-22T01:09:06.803Z,2.28
2023-04-22T01:10:06.900Z,2.29
2023-04-22T01:11:06.979Z,2.25
2023-04-22T01:12:06.887Z,2.30
2023-04-22T01:13:06.985Z,2.28
2023-04-22T01:14:06.943Z,2.24
2023-04-22T01:15:06.989Z,2.25
2023-04-22T01:16:07.164Z,2.23
2023-04-22T01:17:07.081Z,2.24
2023-04-22T01:18:07.106Z,2.26
2023-04-22T01:19:07.110Z,2.27
2023-04-22T01:20:07.121Z,2.23
2023-04-22T01:21:07.306Z,2.25
2023-04-22T01:22:07.149Z,2.25
2023-04-22T01:23:07.214Z,2.26
2023-04-22T01:24:07.260Z,2.26
2023-04-22T01:25:07.259Z,2.26
2023-04-22T01:26:07.290Z,2.24
2023-04-22T01:27:07.292Z,2.22
2023-04-22T01:28:07.378Z,2.23
2023-04-22T01:29:07.335Z,2.23
2023-04-22T01:30:07.406Z,2.23
2023-04-22T01:31:07.437Z,2.27
2023-04-22T01:32:07.425Z,2.22
2023-04-22T01:33:07.476Z,2.21
2023-04-22T01:34:07.507Z,2.27
2023-04-22T01:35:07.511Z,2.22
2023-04-22T01:36:07.560Z,2.22
2023-04-22T01:37:07.557Z,2.20
2023-04-22T01:38:07.609Z,2.20
2023-04-22T01:39:07.627Z,2.20
2023-04-22T01:40:07.659Z,2.20
2023-04-22T01:41:07.749Z,2.18
2023-04-22T01:42:07.728Z,2.22
2023-04-22T01:43:07.766Z,2.20
2023-04-22T01:44:07.775Z,2.21
2023-04-22T01:45:08.006Z,2.21
2023-04-22T01:46:07.885Z,2.17
2023-04-22T01:47:07.881Z,2.19
2023-04-22T01:48:07.964Z,2.20
2023-04-22T01:49:07.924Z,2.20
2023-04-22T01:50:07.952Z,2.18
2023-04-22T01:51:08.014Z,2.21
2023-04-22T01:52:08.022Z,2.22
2023-04-22T01:53:08.054Z,2.17
2023-04-22T01:54:08.089Z,2.18
2023-04-22T01:55:08.122Z,2.16
2023-04-22T01:56:08.157Z,2.15
2023-04-22T01:57:08.166Z,2.19
2023-04-22T01:58:08.206Z,2.18
2023-04-22T01:59:08.233Z,2.19
2023-04-22T02:00:08.276Z,2.14
2023-04-22T02:01:08.356Z,2.15
2023-04-22T02:02:08.400Z,2.16
2023-04-22T02:03:08.447Z,2.15
2023-04-22T02:04:08.414Z,2.15
2023-04-22T02:05:08.506Z,2.13
2023-04-22T02:06:08.589Z,2.12
2023-04-22T02:07:08.570Z,2.14
2023-04-22T02:08:08.549Z,2.12
2023-04-22T02:09:08.602Z,2.16
2023-04-22T02:10:08.605Z,2.13
2023-04-22T02:11:08.753Z,2.15
2023-04-22T02:12:08.698Z,2.12
2023-04-22T02:13:08.727Z,2.12
2023-04-22T02:14:08.774Z,2.14
2023-04-22T02:15:08.785Z,2.12
2023-04-22T02:16:08.860Z,2.11
2023-04-22T02:17:08.828Z,2.11
2023-04-22T02:18:08.862Z,2.09
2023-04-22T02:19:08.899Z,2.10
2023-04-22T02:20:08.980Z,2.12
2023-04-22T02:21:08.995Z,2.08
2023-04-22T02:22:09.002Z,2.11
2023-04-22T02:23:09.085Z,2.07
2023-04-22T02:24:09.075Z,2.10
2023-04-22T02:25:09.080Z,2.12
2023-04-22T02:26:09.127Z,2.12
2023-04-22T02:27:09.128Z,2.06
2023-04-22T02:28:09.194Z,2.08
2023-04-22T02:29:09.260Z,2.08
2023-04-22T02:30:09.239Z,2.06
2023-04-22T02:31:09.387Z,2.07
2023-04-22T02:32:09.312Z,2.06
2023-04-22T02:33:09.432Z,2.06
2023-04-22T02:34:09.413Z,2.05
2023-04-22T02:35:09.403Z,2.05
2023-04-22T02:36:09.473Z,2.09
2023-04-22T02:37:09.463Z,2.10
2023-04-22T02:38:09.523Z,2.07
2023-04-22T02:39:09.524Z,2.03
2023-04-22T02:40:09.563Z,2.03
2023-04-22T02:41:09.634Z,2.05
2023-04-22T02:42:09.650Z,2.04
2023-04-22T02:43:09.668Z,2.08
2023-04-22T02:44:09.731Z,2.02
2023-04-22T02:45:09.738Z,2.05
2023-04-22T02:46:09.885Z,2.06
2023-04-22T02:47:09.907Z,2.03
2023-04-22T02:48:10.039Z,2.06
2023-04-22T02:49:09.892Z,2.02
2023-04-22T02:50:09.924Z,2.04
2023-04-22T02:51:09.957Z,2.03
2023-04-22T02:52:09.999Z,2.03
2023-04-22T02:53:10.024Z,2.06
2023-04-22T02:54:10.057Z,2.06
2023-04-22T02:55:10.106Z,2.01
2023-04-22T02:56:10.186Z,2.04
2023-04-22T02:57:10.205Z,2.04
2023-04-22T02:58:10.212Z,2.02
2023-04-22T02:59:10.235Z,2.00
2023-04-22T03:00:10.297Z,2.02
2023-04-22T03:01:10.395Z,1.97
2023-04-22T03:02:10.522Z,1.99
2023-04-22T03:03:10.576Z,1.98
2023-04-22T03:04:10.556Z,1.97
2023-04-22T03:05:10.488Z,1.99
2023-04-22T03:06:10.580Z,1.99
2023-04-22T03:07:10.557Z,1.97
2023-04-22T03:08:10.599Z,1.99
2023-04-22T03:09:10.662Z,1.98
2023-04-22T03:10:10.695Z,1.99
2023-04-22T03:11:10.752Z,2.00
2023-04-22T03:12:10.764Z,2.00
2023-04-22T03:13:10.840Z,1.99
2023-04-22T03:14:10.862Z,1.99
2023-04-22T03:15:10.887Z,1.97
2023-04-22T03:16:10.985Z,1.95
2023-04-22T03:17:10.963Z,1.98
2023-04-22T03:18:11.040Z,2.00
2023-04-22T03:19:11.080Z,1.95
2023-04-22T03:20:11.088Z,1.98
2023-04-22T03:21:11.137Z,1.99
2023-04-22T03:22:11.171Z,1.95
2023-04-22T03:23:11.230Z,1.96
2023-04-22T03:24:11.246Z,1.99
2023-04-22T03:25:11.275Z,1.95
2023-04-22T03:26:11.337Z,1.95
2023-04-22T03:27:11.383Z,1.96
2023-04-22T03:28:11.438Z,1.97
2023-04-22T03:29:11.488Z,1.96
2023-04-22T03:30:11.517Z,1.92
2023-04-22T03:31:11.584Z,1.97
2023-04-22T03:32:11.681Z,1.93
2023-04-22T03:33:11.714Z,1.92
2023-04-22T03:34:11.688Z,1.94
2023-04-22T03:35:11.782Z,1.91
2023-04-22T03:36:11.820Z,1.93
2023-04-22T03:37:11.845Z,1.91
2023-04-22T03:38:11.876Z,1.93
2023-04-22T03:39:11.905Z,1.94
2023-04-22T03:40:13.575Z,1.92
2023-04-22T03:41:11.984Z,1.92
2023-04-22T03:42:12.045Z,1.90
2023-04-22T03:43:12.084Z,1.87
2023-04-22T03:44:12.092Z,1.92
2023-04-22T03:45:12.161Z,1.92
2023-04-22T03:46:12.182Z,1.87
2023-04-22T03:47:12.248Z,1.90
2023-04-22T03:48:12.269Z,1.86
2023-04-22T03:49:12.341Z,1.91
2023-04-22T03:50:12.348Z,1.88
2023-04-22T03:51:12.406Z,1.90
2023-04-22T03:52:12.437Z,1.92
2023-04-22T03:53:12.503Z,1.90
2023-04-22T03:54:12.544Z,1.89
2023-04-22T03:55:12.580Z,1.90
2023-04-22T03:56:12.614Z,1.89
2023-04-22T03:57:12.659Z,1.90
2023-04-22T03:58:12.713Z,1.86
2023-04-22T03:59:12.778Z,1.92
2023-04-22T04:00:12.799Z,1.87
2023-04-22T04:01:12.859Z,1.85
2023-04-22T04:02:12.990Z,1.88
2023-04-22T04:03:13.170Z,1.87
2023-04-22T04:04:13.086Z,1.87
2023-04-22T04:05:13.077Z,1.87
2023-04-22T04:06:13.137Z,1.86
2023-04-22T04:07:13.132Z,1.84
2023-04-22T04:08:13.200Z,1.84
2023-04-22T04:09:13.209Z,1.85
2023-04-22T04:10:13.228Z,1.85
2023-04-22T04:11:13.286Z,1.83
2023-04-22T04:12:13.316Z,1.84
2023-04-22T04:13:13.397Z,1.84
2023-04-22T04:14:13.460Z,1.88
2023-04-22T04:15:13.489Z,1.87
2023-04-22T04:16:13.626Z,1.81
2023-04-22T04:17:13.563Z,1.83
2023-04-22T04:18:13.658Z,1.83
2023-04-22T04:19:13.658Z,1.82
2023-04-22T04:20:13.709Z,1.80
2023-04-22T04:21:13.754Z,1.82
2023-04-22T04:22:13.809Z,1.81
2023-04-22T04:23:13.841Z,1.81
2023-04-22T04:24:13.909Z,1.84
2023-04-22T04:25:13.910Z,1.82
2023-04-22T04:26:13.988Z,1.84
2023-04-22T04:27:14.010Z,1.79
2023-04-22T04:28:14.050Z,1.78
2023-04-22T04:29:14.155Z,1.80
2023-04-22T04:30:14.126Z,1.82
2023-04-22T04:31:14.557Z,1.80
2023-04-22T04:32:14.233Z,1.81
2023-04-22T04:33:14.321Z,1.79
2023-04-22T04:34:14.310Z,1.79
2023-04-22T04:35:14.417Z,1.83
2023-04-22T04:36:14.379Z,1.79
2023-04-22T04:37:14.400Z,1.78
2023-04-22T04:38:14.471Z,1.80
2023-04-22T04:39:14.479Z,1.80
2023-04-22T04:40:14.547Z,1.80
2023-04-22T04:41:14.625Z,1.80
2023-04-22T04:42:14.641Z,1.79
2023-04-22T04:43:14.632Z,1.77
2023-04-22T04:44:14.693Z,1.77
2023-04-22T04:45:14.703Z,1.74
2023-04-22T04:46:14.826Z,1.77
2023-04-22T04:47:14.778Z,1.76
2023-04-22T04:48:14.796Z,1.78
2023-04-22T04:49:14.812Z,1.75
2023-04-22T04:50:14.892Z,1.78
2023-04-22T04:51:14.893Z,1.77
2023-04-22T04:52:14.919Z,1.78
2023-04-22T04:53:14.951Z,1.74
2023-04-22T04:54:14.956Z,1.74
2023-04-22T04:55:15.001Z,1.72
2023-04-22T04:56:15.036Z,1.71
2023-04-22T04:57:15.029Z,1.74
2023-04-22T04:58:15.062Z,1.73
2023-04-22T04:59:15.118Z,1.74
2023-04-22T05:00:15.066Z,1.68
2023-04-22T05:01:15.150Z,1.60
2023-04-22T05:02:15.317Z,1.54
2023-04-22T05:03:15.398Z,1.53
2023-04-22T05:04:15.423Z,1.62
2023-04-22T05:05:15.252Z,1.70
2023-04-22T05:06:15.279Z,1.74
2023-04-22T05:07:15.319Z,1.82
2023-04-22T05:08:15.316Z,2.03
2023-04-22T05:09:15.366Z,2.14
2023-04-22T05:10:15.394Z,2.38
2023-04-22T05:11:15.429Z,2.49
2023-04-22T05:12:15.469Z,2.64
2023-04-22T05:13:15.468Z,2.38
2023-04-22T05:14:15.565Z,2.19
2023-04-22T05:15:15.554Z,2.01
2023-04-22T05:16:15.640Z,1.91
2023-04-22T05:17:15.574Z,1.80
2023-04-22T05:18:15.634Z,1.75
2023-04-22T05:19:15.629Z,1.70
2023-04-22T05:20:15.648Z,1.77
2023-04-22T05:21:15.679Z,2.13
2023-04-22T05:22:15.710Z,2.80
2023-04-22T05:23:15.756Z,3.53
2023-04-22T05:24:15.763Z,4.30
2023-04-22T05:25:15.847Z,4.54
2023-04-22T05:26:15.800Z,4.34
2023-04-22T05:27:15.809Z,3.64
2023-04-22T05:28:15.832Z,2.92
2023-04-22T05:29:15.863Z,2.60
2023-04-22T05:30:15.918Z,2.27
2023-04-22T05:31:15.967Z,1.99
2023-04-22T05:32:16.078Z,1.81
2023-04-22T05:33:16.062Z,1.72
2023-04-22T05:34:16.040Z,1.61
2023-04-22T05:35:16.084Z,1.59
2023-04-22T05:36:16.153Z,1.61
2023-04-22T05:37:16.188Z,1.99
2023-04-22T05:38:16.238Z,2.47
2023-04-22T05:39:16.257Z,3.14
2023-04-22T05:40:16.300Z,3.76
2023-04-22T05:41:16.330Z,4.00
2023-04-22T05:42:16.340Z,4.17
2023-04-22T05:43:16.364Z,3.53
2023-04-22T05:44:16.425Z,3.02
2023-04-22T05:45:16.437Z,2.56
2023-04-22T05:46:16.504Z,2.18
2023-04-22T05:47:16.474Z,2.01
2023-04-22T05:48:16.516Z,1.82
2023-04-22T05:49:16.576Z,1.64
2023-04-22T05:50:16.592Z,1.53
2023-04-22T05:51:16.650Z,1.44
2023-04-22T05:52:16.615Z,1.39
2023-04-22T05:53:16.640Z,1.34
2023-04-22T05:54:16.649Z,1.31
2023-04-22T05:55:16.649Z,1.31
2023-04-22T05:56:16.692Z,1.28
2023-04-22T05:57:16.692Z,1.27
2023-04-22T05:58:16.758Z,1.24
2023-04-22T05:59:17.866Z,1.23
2023-04-22T06:00:17.039Z,1.25
2023-04-22T06:01:17.083Z,1.23
2023-04-22T06:02:17.178Z,1.22
2023-04-22T06:03:17.307Z,1.21
2023-04-22T06:04:17.234Z,1.19
2023-04-22T06:05:17.115Z,1.23
2023-04-22T06:06:17.142Z,1.21
2023-04-22T06:07:17.088Z,1.22
2023-04-22T06:08:17.129Z,1.18
2023-04-22T06:09:17.127Z,1.21
2023-04-22T06:10:17.189Z,1.21
2023-04-22T06:11:17.228Z,1.18
2023-04-22T06:12:17.230Z,1.20
2023-04-22T06:13:17.256Z,1.18
2023-04-22T06:14:17.335Z,1.18
2023-04-22T06:15:17.336Z,1.18
2023-04-22T06:16:17.374Z,1.17
2023-04-22T06:17:17.509Z,1.19
2023-04-22T06:18:17.445Z,1.20
2023-04-22T06:19:17.471Z,1.18
2023-04-22T06:20:17.533Z,1.18
2023-04-22T06:21:17.549Z,1.17
2023-04-22T06:22:17.618Z,1.18
2023-04-22T06:23:17.657Z,1.18
2023-04-22T06:24:17.695Z,1.18
2023-04-22T06:25:17.736Z,1.16
2023-04-22T06:26:17.755Z,1.19
2023-04-22T06:27:17.786Z,1.21
2023-04-22T06:28:17.825Z,1.18
2023-04-22T06:29:17.896Z,1.19
2023-04-22T06:30:17.919Z,1.19
2023-04-22T06:31:18.900Z,1.19
2023-04-22T06:32:18.057Z,1.20
2023-04-22T06:33:18.097Z,1.21
2023-04-22T06:34:18.111Z,1.21
2023-04-22T06:35:18.114Z,1.23
2023-04-22T06:36:18.146Z,1.24
2023-04-22T06:37:18.151Z,1.23
2023-04-22T06:38:18.185Z,1.25
2023-04-22T06:39:18.189Z,1.24
2023-04-22T06:40:18.172Z,1.26
2023-04-22T06:41:18.188Z,1.27
2023-04-22T06:42:18.208Z,1.27
2023-04-22T06:43:18.212Z,1.28
2023-04-22T06:44:18.203Z,1.27
2023-04-22T06:45:18.217Z,1.23
2023-04-22T06:46:18.271Z,1.26
2023-04-22T06:47:18.380Z,1.27
2023-04-22T06:48:18.305Z,1.26
2023-04-22T06:49:18.296Z,1.26
2023-04-22T06:50:18.310Z,1.28
2023-04-22T06:51:18.362Z,1.28
2023-04-22T06:52:18.365Z,1.25
2023-04-22T06:53:18.387Z,1.25
2023-04-22T06:54:18.410Z,1.27
2023-04-22T06:55:18.442Z,1.25
2023-04-22T06:56:18.460Z,1.27
2023-04-22T06:57:18.456Z,1.26
2023-04-22T06:58:18.472Z,1.29
2023-04-22T06:59:18.515Z,1.25
2023-04-22T07:00:18.554Z,1.23
2023-04-22T07:01:18.577Z,1.25
2023-04-22T07:02:18.636Z,1.25
2023-04-22T07:03:18.670Z,1.26
2023-04-22T07:04:18.694Z,1.28
2023-04-22T07:05:18.624Z,1.27
2023-04-22T07:06:18.648Z,1.28
2023-04-22T07:07:18.669Z,1.27
2023-04-22T07:08:18.669Z,1.30
2023-04-22T07:09:18.714Z,1.29
2023-04-22T07:10:18.741Z,1.28
2023-04-22T07:11:18.837Z,1.29
2023-04-22T07:12:18.803Z,1.28
2023-04-22T07:13:18.808Z,1.29
2023-04-22T07:14:18.822Z,1.28
2023-04-22T07:15:18.845Z,1.29
2023-04-22T07:16:18.924Z,1.29
2023-04-22T07:17:18.922Z,1.30
2023-04-22T07:18:18.884Z,1.30
2023-04-22T07:19:18.907Z,1.31
2023-04-22T07:20:18.935Z,1.30
2023-04-22T07:21:18.946Z,1.32
2023-04-22T07:22:18.945Z,1.32
2023-04-22T07:23:18.955Z,1.33
2023-04-22T07:24:18.963Z,1.32
2023-04-22T07:25:19.004Z,1.32
2023-04-22T07:26:18.983Z,1.35
2023-04-22T07:27:18.959Z,1.35
2023-04-22T07:28:18.997Z,1.34
2023-04-22T07:29:18.977Z,1.37
2023-04-22T07:30:18.970Z,1.36
2023-04-22T07:31:19.082Z,1.39
2023-04-22T07:32:19.011Z,1.38
2023-04-22T07:33:18.992Z,1.38
2023-04-22T07:34:19.008Z,1.38
2023-04-22T07:35:19.026Z,1.39
2023-04-22T07:36:18.999Z,1.38
2023-04-22T07:37:18.995Z,1.40
2023-04-22T07:38:18.999Z,1.42
2023-04-22T07:39:19.030Z,1.43
2023-04-22T07:40:19.026Z,1.39
2023-04-22T07:41:19.049Z,1.40
2023-04-22T07:42:19.047Z,1.41
2023-04-22T07:43:19.085Z,1.39
2023-04-22T07:44:19.062Z,1.43
2023-04-22T07:45:19.068Z,1.43
2023-04-22T07:46:19.114Z,1.45
2023-04-22T07:47:19.075Z,1.44
2023-04-22T07:48:19.078Z,1.42
2023-04-22T07:49:19.094Z,1.41
2023-04-22T07:50:19.100Z,1.44
2023-04-22T07:51:19.110Z,1.47
2023-04-22T07:52:19.117Z,1.45
2023-04-22T07:53:19.110Z,1.45
2023-04-22T07:54:19.117Z,1.46
2023-04-22T07:55:19.118Z,1.47
2023-04-22T07:56:19.165Z,1.47
2023-04-22T07:57:19.126Z,1.47
2023-04-22T07:58:19.125Z,1.48
2023-04-22T07:59:19.121Z,1.50
2023-04-22T08:00:19.160Z,1.50
2023-04-22T08:01:20.240Z,1.47
2023-04-22T08:02:19.182Z,1.50
2023-04-22T08:03:19.259Z,1.50
2023-04-22T08:04:19.245Z,1.48
2023-04-22T08:05:19.139Z,1.51
2023-04-22T08:06:19.099Z,1.52
2023-04-22T08:07:32.568Z,1.50
2023-04-22T08:08:20.080Z,1.50
2023-04-22T08:09:19.071Z,1.51
2023-04-22T08:10:19.087Z,1.51
2023-04-22T08:11:19.095Z,1.53
2023-04-22T08:12:19.066Z,1.54
2023-04-22T08:13:19.071Z,1.52
2023-04-22T08:14:19.072Z,1.54
2023-04-22T08:15:19.063Z,1.58
2023-04-22T08:16:19.113Z,1.55
2023-04-22T08:17:19.026Z,1.57
2023-04-22T08:18:19.045Z,1.59
2023-04-22T08:19:19.029Z,1.57
2023-04-22T08:20:19.008Z,1.56
2023-04-22T08:21:19.009Z,1.57
2023-04-22T08:22:19.005Z,1.56
2023-04-22T08:23:19.035Z,1.57
2023-04-22T08:24:19.010Z,1.57
2023-04-22T08:25:18.981Z,1.58
2023-04-22T08:26:19.003Z,1.58
2023-04-22T08:27:19.007Z,1.59
2023-04-22T08:28:18.981Z,1.60
2023-04-22T08:29:18.974Z,1.57
2023-04-22T08:30:18.957Z,1.64
2023-04-22T08:31:19.022Z,1.59
2023-04-22T08:32:18.955Z,1.63
2023-04-22T08:33:18.943Z,1.61
2023-04-22T08:34:18.918Z,1.63
2023-04-22T08:35:18.910Z,1.59
2023-04-22T08:36:18.993Z,1.66
2023-04-22T08:37:19.007Z,1.57
2023-04-22T08:38:18.989Z,1.63
2023-04-22T08:39:19.013Z,1.62
2023-04-22T08:40:19.043Z,1.64
2023-04-22T08:41:19.061Z,1.59
2023-04-22T08:42:19.085Z,1.62
2023-04-22T08:43:19.051Z,1.66
2023-04-22T08:44:19.069Z,1.64
2023-04-22T08:45:19.095Z,1.65
2023-04-22T08:46:19.135Z,1.66
2023-04-22T08:47:19.177Z,1.66
2023-04-22T08:48:19.136Z,1.63
2023-04-22T08:49:19.201Z,1.62
2023-04-22T08:50:19.191Z,1.67
2023-04-22T08:51:19.242Z,1.67
2023-04-22T08:52:19.220Z,1.68
2023-04-22T08:53:19.234Z,1.67
2023-04-22T08:54:19.255Z,1.66
2023-04-22T08:55:19.288Z,1.66
2023-04-22T08:56:19.699Z,1.67
2023-04-22T08:57:19.252Z,1.68
2023-04-22T08:58:19.267Z,1.63
2023-04-22T08:59:19.282Z,1.66
2023-04-22T09:00:19.314Z,1.68
2023-04-22T09:01:19.258Z,1.65
2023-04-22T09:02:19.267Z,1.68
2023-04-22T09:03:19.338Z,1.67
2023-04-22T09:04:19.295Z,1.67
2023-04-22T09:05:19.230Z,1.67
2023-04-22T09:06:19.224Z,1.66
2023-04-22T09:07:19.225Z,1.67
2023-04-22T09:08:19.209Z,1.68
2023-04-22T09:09:19.214Z,1.66
2023-04-22T09:10:19.229Z,1.67
2023-04-22T09:11:19.217Z,1.67
2023-04-22T09:12:19.232Z,1.68
2023-04-22T09:13:19.246Z,1.68
2023-04-22T09:14:19.226Z,1.70
2023-04-22T09:15:19.226Z,1.66
2023-04-22T09:16:19.252Z,1.69
2023-04-22T09:17:19.268Z,1.69
2023-04-22T09:18:19.281Z,1.67
2023-04-22T09:19:19.269Z,1.71
2023-04-22T09:20:19.337Z,1.69
2023-04-22T09:21:19.285Z,1.67
2023-04-22T09:22:19.288Z,1.70
2023-04-22T09:23:19.288Z,1.67
2023-04-22T09:24:19.316Z,1.67
2023-04-22T09:25:19.330Z,1.69
2023-04-22T09:26:20.198Z,1.68
2023-04-22T09:27:19.417Z,1.67
2023-04-22T09:28:19.410Z,1.68
2023-04-22T09:29:19.383Z,1.69
2023-04-22T09:30:19.408Z,1.70
2023-04-22T09:31:19.440Z,1.68
2023-04-22T09:32:19.421Z,1.71
2023-04-22T09:33:19.473Z,1.69
2023-04-22T09:34:19.534Z,1.67
2023-04-22T09:35:19.490Z,1.68
2023-04-22T09:36:19.513Z,1.67
2023-04-22T09:37:19.593Z,1.67
2023-04-22T09:38:19.552Z,1.64
2023-04-22T09:39:19.570Z,1.65
2023-04-22T09:40:19.594Z,1.66
2023-04-22T09:41:19.667Z,1.67
2023-04-22T09:42:19.635Z,1.62
2023-04-22T09:43:19.682Z,1.63
2023-04-22T09:44:19.717Z,1.67
2023-04-22T09:45:19.719Z,1.62
2023-04-22T09:46:19.806Z,1.66
2023-04-22T09:47:19.773Z,1.67
2023-04-22T09:48:19.841Z,1.66
2023-04-22T09:49:19.823Z,1.64
2023-04-22T09:50:19.893Z,1.61
2023-04-22T09:51:19.893Z,1.61
2023-04-22T09:52:19.908Z,1.56
2023-04-22T09:53:19.933Z,1.61
2023-04-22T09:54:19.957Z,1.61
2023-04-22T09:55:19.996Z,1.61
2023-04-22T09:56:20.044Z,1.59
2023-04-22T09:57:20.054Z,1.58
2023-04-22T09:58:20.105Z,1.62
2023-04-22T09:59:20.106Z,1.61
2023-04-22T10:00:20.163Z,1.57
2023-04-22T10:01:20.256Z,1.58
2023-04-22T10:02:20.283Z,1.54
2023-04-22T10:03:20.254Z,1.59
2023-04-22T10:04:20.336Z,1.57
2023-04-22T10:05:20.311Z,1.57
2023-04-22T10:06:20.351Z,1.57
2023-04-22T10:07:20.387Z,1.58
2023-04-22T10:08:20.427Z,1.55
2023-04-22T10:09:20.462Z,1.53
2023-04-22T10:10:20.491Z,1.54
2023-04-22T10:11:20.538Z,1.56
2023-04-22T10:12:26.161Z,1.57
2023-04-22T10:13:21.589Z,1.57
2023-04-22T10:14:20.608Z,1.57
2023-04-22T10:15:20.558Z,1.56
2023-04-22T10:16:20.597Z,1.56
2023-04-22T10:17:20.601Z,1.58
2023-04-22T10:18:20.536Z,1.54
2023-04-22T10:19:20.521Z,1.56
2023-04-22T10:20:20.550Z,1.56
2023-04-22T10:21:20.495Z,1.55
2023-04-22T10:22:20.507Z,1.56
2023-04-22T10:23:20.508Z,1.54
2023-04-22T10:24:20.482Z,1.54
2023-04-22T10:25:20.473Z,1.53
2023-04-22T10:26:20.487Z,1.53
2023-04-22T10:27:20.518Z,1.52
2023-04-22T10:28:20.535Z,1.55
2023-04-22T10:29:20.580Z,1.54
2023-04-22T10:30:20.617Z,1.53
2023-04-22T10:31:20.766Z,1.53
2023-04-22T10:32:20.732Z,1.55
2023-04-22T10:33:20.752Z,1.53
2023-04-22T10:34:20.802Z,1.54
2023-04-22T10:35:20.860Z,1.53
2023-04-22T10:36:20.880Z,1.53
2023-04-22T10:37:20.912Z,1.53
2023-04-22T10:38:20.973Z,1.54
2023-04-22T10:39:21.002Z,1.51
2023-04-22T10:40:21.065Z,1.53
2023-04-22T10:41:21.126Z,1.52
2023-04-22T10:42:21.156Z,1.51
2023-04-22T10:43:21.217Z,1.51
2023-04-22T10:44:21.280Z,1.52
2023-04-22T10:45:21.307Z,1.52
2023-04-22T10:46:21.409Z,1.54
2023-04-22T10:47:21.399Z,1.50
2023-04-22T10:48:21.455Z,1.51
2023-04-22T10:49:21.600Z,1.53
2023-04-22T10:50:21.552Z,1.51
2023-04-22T10:51:21.620Z,1.49
2023-04-22T10:52:21.651Z,1.52
2023-04-22T10:53:21.843Z,1.50
2023-04-22T10:54:21.753Z,1.50
2023-04-22T10:55:21.798Z,1.47
2023-04-22T10:56:21.872Z,1.49
2023-04-22T10:57:21.906Z,1.48
2023-04-22T10:58:21.957Z,1.49
2023-04-22T10:59:21.991Z,1.45
2023-04-22T11:00:22.059Z,1.48
2023-04-22T11:01:22.157Z,1.46
2023-04-22T11:02:22.231Z,1.45
2023-04-22T11:03:22.426Z,1.47
2023-04-22T11:04:22.342Z,1.44
2023-04-22T11:05:23.444Z,1.44
2023-04-22T11:06:22.416Z,1.46
2023-04-22T11:07:22.329Z,1.42
2023-04-22T11:08:22.299Z,1.44
2023-04-22T11:09:22.322Z,1.44
2023-04-22T11:10:22.275Z,1.43
2023-04-22T11:11:22.297Z,1.39
2023-04-22T11:12:22.283Z,1.39
2023-04-22T11:13:22.264Z,1.41
2023-04-22T11:14:22.272Z,1.37
2023-04-22T11:15:22.279Z,1.37
2023-04-22T11:16:22.701Z,1.39
2023-04-22T11:17:22.275Z,1.36
2023-04-22T11:18:22.257Z,1.38
2023-04-22T11:19:22.237Z,1.36
2023-04-22T11:20:22.222Z,1.37
2023-04-22T11:21:22.234Z,1.39
2023-04-22T11:22:22.212Z,1.40
2023-04-22T11:23:22.219Z,1.37
2023-04-22T11:24:22.196Z,1.35
2023-04-22T11:25:22.177Z,1.38
2023-04-22T11:26:22.200Z,1.38
2023-04-22T11:27:22.206Z,1.38
2023-04-22T11:28:22.162Z,1.36
2023-04-22T11:29:22.150Z,1.34
2023-04-22T11:30:22.169Z,1.39
2023-04-22T11:31:22.203Z,1.37
2023-04-22T11:32:22.188Z,1.37
2023-04-22T11:33:22.124Z,1.38
2023-04-22T11:34:22.113Z,1.36
2023-04-22T11:35:22.144Z,1.39
2023-04-22T11:36:22.131Z,1.36
2023-04-22T11:37:22.105Z,1.34
2023-04-22T11:38:22.091Z,1.36
2023-04-22T11:39:22.104Z,1.38
2023-04-22T11:41:23.071Z,1.34
2023-04-22T11:42:22.053Z,1.34
2023-04-22T11:43:22.064Z,1.35
2023-04-22T11:44:22.047Z,1.35
2023-04-22T11:45:22.036Z,1.36
2023-04-22T11:46:22.550Z,1.35
2023-04-22T11:47:22.040Z,1.36
2023-04-22T11:48:22.033Z,1.33
2023-04-22T11:49:22.012Z,1.35
2023-04-22T11:50:22.086Z,1.36
2023-04-22T11:51:22.122Z,1.35
2023-04-22T11:52:22.139Z,1.35
2023-04-22T11:53:22.225Z,1.37
2023-04-22T11:54:22.256Z,1.33
2023-04-22T11:55:22.337Z,1.31
2023-04-22T11:56:22.428Z,1.33
2023-04-22T11:57:22.441Z,1.34
2023-04-22T11:58:22.526Z,1.35
2023-04-22T11:59:22.580Z,1.34
2023-04-22T12:00:22.677Z,1.32
2023-04-22T12:01:22.693Z,1.35
2023-04-22T12:02:22.899Z,1.29
2023-04-22T12:03:22.962Z,1.31
2023-04-22T12:04:22.905Z,1.35
2023-04-22T12:05:22.962Z,1.34
2023-04-22T12:06:23.007Z,1.33
2023-04-22T12:07:23.053Z,1.35
2023-04-22T12:08:23.107Z,1.33
2023-04-22T12:09:23.175Z,1.34
2023-04-22T12:10:23.243Z,1.33
2023-04-22T12:11:23.378Z,1.35
2023-04-22T12:12:23.377Z,1.30
2023-04-22T12:13:23.439Z,1.29
2023-04-22T12:14:23.514Z,1.28
2023-04-22T12:15:23.547Z,1.31
2023-04-22T12:16:23.644Z,1.34
2023-04-22T12:17:23.685Z,1.33
2023-04-22T12:18:23.739Z,1.32
2023-04-22T12:19:23.771Z,1.31
2023-04-22T12:20:24.619Z,1.29
2023-04-22T12:21:23.897Z,1.31
2023-04-22T12:22:23.959Z,1.31
2023-04-22T12:23:24.030Z,1.30
2023-04-22T12:24:24.108Z,1.31
2023-04-22T12:25:24.127Z,1.29
2023-04-22T12:26:26.182Z,1.29
2023-04-22T12:27:24.218Z,1.32
2023-04-22T12:28:24.175Z,1.33
2023-04-22T12:29:24.174Z,1.31
2023-04-22T12:30:24.182Z,1.28
2023-04-22T12:31:24.262Z,1.29
2023-04-22T12:32:24.904Z,1.30
2023-04-22T12:33:24.198Z,1.33
2023-04-22T12:34:24.156Z,1.30
2023-04-22T12:35:24.184Z,1.26
2023-04-22T12:36:24.148Z,1.29
2023-04-22T12:37:24.156Z,1.30
2023-04-22T12:38:24.120Z,1.31
2023-04-22T12:39:24.144Z,1.32
2023-04-22T12:40:24.102Z,1.28
2023-04-22T12:41:24.142Z,1.28
2023-04-22T12:42:24.092Z,1.25
2023-04-22T12:43:24.100Z,1.29
2023-04-22T12:44:25.257Z,1.28
2023-04-22T12:45:24.080Z,1.28
2023-04-22T12:46:24.127Z,1.28
2023-04-22T12:47:24.098Z,1.27
2023-04-22T12:48:24.047Z,1.28
2023-04-22T12:49:24.078Z,1.26
2023-04-22T12:50:24.087Z,1.26
2023-04-22T12:51:24.059Z,1.26
2023-04-22T12:52:24.039Z,1.28
2023-04-22T12:53:24.043Z,1.26
2023-04-22T12:54:24.007Z,1.25
2023-04-22T12:55:24.032Z,1.25
2023-04-22T12:56:24.013Z,1.26
2023-04-22T12:57:24.081Z,1.24
2023-04-22T12:58:24.135Z,1.25
2023-04-22T12:59:24.208Z,1.24
2023-04-22T13:00:24.266Z,1.24
2023-04-22T13:01:24.389Z,1.22
2023-04-22T13:02:24.432Z,1.25
2023-04-22T13:03:24.544Z,1.24
2023-04-22T13:04:24.593Z,1.23
2023-04-22T13:05:24.565Z,1.24
2023-04-22T13:06:24.630Z,1.23
2023-04-22T13:07:24.684Z,1.21
2023-04-22T13:08:24.770Z,1.22
2023-04-22T13:09:24.807Z,1.24
2023-04-22T13:10:24.870Z,1.21
2023-04-22T13:11:24.943Z,1.22
2023-04-22T13:12:25.003Z,1.25
2023-04-22T13:13:25.069Z,1.23
2023-04-22T13:14:25.136Z,1.22
2023-04-22T13:15:25.202Z,1.22
2023-04-22T13:16:25.316Z,1.21
2023-04-22T13:17:25.376Z,1.24
2023-04-22T13:18:25.373Z,1.20
2023-04-22T13:19:25.448Z,1.22